Time;durP1;ratioP1;P1;durP2;ratioP2;P2;SDS_P1;SDS_P2;PMS_P1;PMS_P2;Temp;Humidity;BMP_temperature;BMP_pressure;BME280_temperature;BME280_humidity;BME280_pressure;Samples;Min_cycle;Max_cycle;Signal;HPM_P1;HPM_P2
2021/07/02 00:02:02;;;;;;;33.92;19.67;;;15.90;99.90;;;;;;5052082;28;20075;-64
2021/07/02 00:04:27;;;;;;;42.10;19.30;;;15.90;99.90;;;;;;5052274;28;20521;-64
2021/07/02 00:06:53;;;;;;;34.30;18.95;;;15.90;99.90;;;;;;5051945;28;20032;-64
2021/07/02 00:09:19;;;;;;;33.70;19.48;;;15.90;99.90;;;;;;5052128;28;20448;-64
2021/07/02 00:11:46;;;;;;;35.10;20.50;;;15.90;99.90;;;;;;5051985;28;20051;-64
2021/07/02 00:14:12;;;;;;;33.38;19.25;;;15.90;99.90;;;;;;5051831;28;20467;-64
2021/07/02 00:16:37;;;;;;;31.33;19.92;;;15.90;99.90;;;;;;5052420;28;20048;-64
2021/07/02 00:19:03;;;;;;;40.30;21.88;;;15.90;99.90;;;;;;5051784;28;20564;-64
2021/07/02 00:21:29;;;;;;;37.85;20.48;;;15.90;99.90;;;;;;5052110;28;20037;-64
2021/07/02 00:23:55;;;;;;;34.90;20.25;;;15.90;99.90;;;;;;5051799;28;20474;-64
2021/07/02 00:26:20;;;;;;;32.28;20.38;;;15.90;99.90;;;;;;5067049;28;20494;-64
2021/07/02 00:28:46;;;;;;;32.92;19.40;;;15.80;99.90;;;;;;5071598;28;20051;-64
2021/07/02 00:31:12;;;;;;;38.13;20.85;;;15.90;99.90;;;;;;5071575;28;20047;-64
2021/07/02 00:33:38;;;;;;;36.90;19.23;;;15.80;99.90;;;;;;5071686;28;20037;-64
2021/07/02 00:36:04;;;;;;;34.35;18.08;;;15.80;99.90;;;;;;5071505;28;20036;-64
2021/07/02 00:38:30;;;;;;;31.63;18.58;;;15.80;99.90;;;;;;5070062;28;20044;-64
2021/07/02 00:40:56;;;;;;;31.80;18.33;;;15.80;99.90;;;;;;5071411;28;20083;-64
2021/07/02 00:43:22;;;;;;;39.45;18.67;;;15.90;99.90;;;;;;5071286;28;20064;-64
2021/07/02 00:45:48;;;;;;;31.40;18.98;;;15.80;99.90;;;;;;5071239;28;20071;-64
2021/07/02 00:48:14;;;;;;;31.95;16.92;;;15.80;99.90;;;;;;5071301;28;20086;-64
2021/07/02 00:50:39;;;;;;;29.70;17.52;;;15.80;99.90;;;;;;5071169;28;20044;-64
2021/07/02 00:53:06;;;;;;;27.60;17.33;;;15.80;99.90;;;;;;5071308;28;20558;-64
2021/07/02 00:55:32;;;;;;;32.35;17.90;;;15.80;99.90;;;;;;5071244;28;20371;-64
2021/07/02 00:57:58;;;;;;;32.08;18.20;;;15.90;99.90;;;;;;5071079;28;20046;-64
2021/07/02 01:00:24;;;;;;;32.33;17.08;;;15.80;99.90;;;;;;5071478;28;20050;-64
2021/07/02 01:02:49;;;;;;;31.13;16.20;;;15.80;99.90;;;;;;5070966;28;20100;-64
2021/07/02 01:05:16;;;;;;;29.27;16.27;;;15.80;99.90;;;;;;5070803;28;20375;-64
2021/07/02 01:07:42;;;;;;;28.35;15.38;;;15.80;99.90;;;;;;5070762;28;20044;-64
2021/07/02 01:10:10;;;;;;;30.15;17.15;;;15.80;99.90;;;;;;5070920;28;20043;-64
2021/07/02 01:12:36;;;;;;;31.65;16.73;;;15.80;99.90;;;;;;5070783;28;20060;-64
2021/07/02 01:15:03;;;;;;;27.70;15.98;;;15.80;99.90;;;;;;5069468;28;20060;-64
2021/07/02 01:17:29;;;;;;;31.35;16.70;;;15.80;99.90;;;;;;5070912;28;20033;-64
2021/07/02 01:19:55;;;;;;;29.83;16.27;;;15.70;99.90;;;;;;5070531;28;20090;-64
2021/07/02 01:22:27;;;;;;;28.02;16.10;;;15.70;99.90;;;;;;5070668;28;20530;-64
2021/07/02 01:24:54;;;;;;;;;;;15.70;99.90;;;;;;5067590;28;20085;-64
2021/07/02 01:27:20;;;;;;;30.17;15.88;;;15.60;99.90;;;;;;5050530;28;19921;-64
2021/07/02 01:29:47;;;;;;;26.55;17.10;;;15.60;99.90;;;;;;5050514;28;20482;-64
2021/07/02 01:32:14;;;;;;;26.65;16.15;;;15.50;99.90;;;;;;5050482;28;20120;-64
2021/07/02 01:34:41;;;;;;;28.35;15.50;;;15.50;99.90;;;;;;5050396;28;20437;-64
2021/07/02 01:37:08;;;;;;;24.55;14.35;;;15.50;99.90;;;;;;5050479;28;20040;-64
2021/07/02 01:39:34;;;;;;;21.05;14.13;;;15.50;99.90;;;;;;5050453;28;20136;-63
2021/07/02 01:42:00;;;;;;;27.38;14.52;;;15.50;99.90;;;;;;5050594;28;20033;-63
2021/07/02 01:44:36;;;;;;;23.73;13.68;;;15.50;99.90;;;;;;5050472;28;20478;-64
2021/07/02 01:47:02;;;;;;;21.42;12.50;;;15.60;99.90;;;;;;5050231;28;20041;-64
2021/07/02 01:49:28;;;;;;;23.77;14.45;;;15.60;99.90;;;;;;5050313;28;20045;-64
2021/07/02 01:51:53;;;;;;;25.98;14.35;;;15.60;99.90;;;;;;5050280;28;20059;-64
2021/07/02 01:54:19;;;;;;;27.35;15.00;;;15.50;99.90;;;;;;5050162;28;20041;-63
2021/07/02 01:56:48;;;;;;;26.42;14.13;;;15.60;99.90;;;;;;5050165;28;20433;-64
2021/07/02 01:59:15;;;;;;;26.48;13.70;;;15.60;99.90;;;;;;5050179;28;20060;-63
2021/07/02 02:01:42;;;;;;;28.23;12.90;;;15.50;99.90;;;;;;5050458;28;20433;-64
2021/07/02 02:04:08;;;;;;;27.08;13.25;;;15.50;99.90;;;;;;5050086;28;20478;-64
2021/07/02 02:06:34;;;;;;;25.63;13.65;;;15.50;99.90;;;;;;5050143;28;20097;-64
2021/07/02 02:08:59;;;;;;;23.92;13.45;;;15.50;99.90;;;;;;5049971;28;20037;-64
2021/07/02 02:11:25;;;;;;;18.55;12.50;;;15.50;99.90;;;;;;5050320;28;20049;-64
2021/07/02 02:13:50;;;;;;;25.48;13.05;;;15.50;99.90;;;;;;5050054;28;20040;-64
2021/07/02 02:16:16;;;;;;;23.67;14.00;;;15.50;99.90;;;;;;5051456;28;20482;-64
2021/07/02 02:18:42;;;;;;;18.75;12.32;;;15.50;99.90;;;;;;5054272;28;20099;-64
2021/07/02 02:21:07;;;;;;;19.20;12.60;;;15.50;99.90;;;;;;5052767;28;20052;-64
2021/07/02 02:23:33;;;;;;;19.75;13.05;;;15.50;99.90;;;;;;5054116;28;20094;-64
2021/07/02 02:25:58;;;;;;;18.60;12.05;;;15.50;99.90;;;;;;5066035;28;20600;-64
2021/07/02 02:28:24;;;;;;;23.83;12.15;;;15.50;99.90;;;;;;5074167;28;20072;-64
2021/07/02 02:30:50;;;;;;;19.08;11.95;;;15.50;99.90;;;;;;5073919;28;20115;-63
2021/07/02 02:33:15;;;;;;;20.40;12.18;;;15.50;99.90;;;;;;5073896;28;20078;-64
2021/07/02 02:35:41;;;;;;;18.52;12.25;;;15.50;99.90;;;;;;5073815;28;20067;-63
2021/07/02 02:38:07;;;;;;;18.80;10.98;;;15.50;99.90;;;;;;5073735;28;20040;-63
2021/07/02 02:40:33;;;;;;;13.90;10.25;;;15.50;99.90;;;;;;5073849;28;20051;-64
2021/07/02 02:42:59;;;;;;;15.18;10.75;;;15.50;99.90;;;;;;5073658;28;20037;-64
2021/07/02 02:45:25;;;;;;;16.45;10.43;;;15.50;99.90;;;;;;5072517;28;20040;-64
2021/07/02 02:47:50;;;;;;;13.27;9.90;;;15.40;99.90;;;;;;5073547;28;20090;-64
2021/07/02 02:50:16;;;;;;;16.30;10.60;;;15.50;99.90;;;;;;5073519;28;20049;-64
2021/07/02 02:52:42;;;;;;;13.95;10.00;;;15.40;99.90;;;;;;5073431;28;20090;-63
2021/07/02 02:55:08;;;;;;;16.15;10.38;;;15.50;99.90;;;;;;5073562;28;20033;-63
2021/07/02 02:57:33;;;;;;;16.10;10.32;;;15.40;99.90;;;;;;5073758;28;20037;-64
2021/07/02 02:59:59;;;;;;;16.92;11.02;;;15.40;99.90;;;;;;5073472;28;20120;-64
2021/07/02 03:02:25;;;;;;;14.45;9.70;;;15.40;99.90;;;;;;5073530;28;20036;-63
2021/07/02 03:04:52;;;;;;;12.50;9.68;;;15.40;99.90;;;;;;5073332;28;20101;-64
2021/07/02 03:07:18;;;;;;;17.40;10.43;;;15.40;99.90;;;;;;5073165;28;20036;-64
2021/07/02 03:09:44;;;;;;;13.88;9.90;;;15.40;99.90;;;;;;5073199;28;20044;-64
2021/07/02 03:12:10;;;;;;;16.17;10.02;;;15.40;99.90;;;;;;5073302;28;20445;-64
2021/07/02 03:14:36;;;;;;;17.70;10.68;;;15.40;99.90;;;;;;5073262;28;20493;-64
2021/07/02 03:17:01;;;;;;;14.82;9.85;;;15.40;99.90;;;;;;5072907;28;20082;-64
2021/07/02 03:19:27;;;;;;;14.95;11.02;;;15.40;99.90;;;;;;5073169;28;20539;-64
2021/07/02 03:21:53;;;;;;;19.00;11.48;;;15.40;99.90;;;;;;5072753;28;20486;-63
2021/07/02 03:24:19;;;;;;;17.52;11.20;;;15.40;99.90;;;;;;5071795;28;20531;-64
2021/07/02 03:26:45;;;;;;;19.67;11.40;;;15.40;99.90;;;;;;5053823;28;20045;-64
2021/07/02 03:29:11;;;;;;;18.88;11.57;;;15.40;99.90;;;;;;5050466;28;20033;-64
2021/07/02 03:31:37;;;;;;;19.10;11.50;;;15.40;99.90;;;;;;5052746;28;20727;-64
2021/07/02 03:34:03;;;;;;;19.05;11.80;;;15.40;99.90;;;;;;5052587;28;20048;-63
2021/07/02 03:36:30;;;;;;;19.17;12.10;;;15.40;99.90;;;;;;5052737;28;20037;-64
2021/07/02 03:38:56;;;;;;;18.65;12.30;;;15.40;99.90;;;;;;5052824;28;20662;-64
2021/07/02 03:41:22;;;;;;;18.17;11.68;;;15.40;99.90;;;;;;5052696;28;20059;-64
2021/07/02 03:43:49;;;;;;;20.33;12.63;;;15.40;99.90;;;;;;5051323;28;20102;-63
2021/07/02 03:46:14;;;;;;;18.38;12.10;;;15.40;99.90;;;;;;5052456;28;20037;-64
2021/07/02 03:48:40;;;;;;;19.67;12.25;;;15.40;99.90;;;;;;5052398;28;20415;-63
2021/07/02 03:51:06;;;;;;;18.85;12.02;;;15.30;99.90;;;;;;5052319;28;20044;-63
2021/07/02 03:53:32;;;;;;;20.92;12.77;;;15.30;99.90;;;;;;5052385;28;20071;-63
2021/07/02 03:55:57;;;;;;;17.42;12.35;;;15.40;99.90;;;;;;5052265;28;20071;-63
2021/07/02 03:58:23;;;;;;;23.33;12.95;;;15.40;99.90;;;;;;5052378;28;20435;-64
2021/07/02 04:00:49;;;;;;;19.30;11.85;;;15.50;99.90;;;;;;5052204;28;20454;-64
2021/07/02 04:03:15;;;;;;;22.90;12.27;;;15.50;99.90;;;;;;5052167;28;20079;-64
2021/07/02 04:05:44;;;;;;;17.00;11.85;;;15.60;99.90;;;;;;5052101;28;20116;-63
2021/07/02 04:08:10;;;;;;;20.83;12.38;;;15.60;99.90;;;;;;5052056;28;20037;-63
2021/07/02 04:10:36;;;;;;;23.52;12.88;;;15.70;99.90;;;;;;5052065;28;20087;-63
2021/07/02 04:13:02;;;;;;;20.60;12.48;;;15.70;99.90;;;;;;5052029;28;20045;-64
2021/07/02 04:15:28;;;;;;;21.30;12.20;;;15.80;99.90;;;;;;5052067;28;20478;-64
2021/07/02 04:17:54;;;;;;;26.15;13.05;;;15.80;99.90;;;;;;5051859;28;20056;-64
2021/07/02 04:20:19;;;;;;;19.73;11.82;;;15.80;99.90;;;;;;5051967;28;20072;-64
2021/07/02 04:22:45;;;;;;;21.70;13.65;;;15.80;99.90;;;;;;5051951;28;20075;-64
2021/07/02 04:25:11;;;;;;;22.08;13.52;;;15.80;99.90;;;;;;5057402;28;20083;-64
2021/07/02 04:27:38;;;;;;;22.23;15.05;;;15.90;99.90;;;;;;5071775;28;20043;-64
2021/07/02 04:30:05;;;;;;;20.75;14.63;;;16.00;99.90;;;;;;5071889;28;20033;-64
2021/07/02 04:32:30;;;;;;;21.58;14.65;;;16.00;99.90;;;;;;5070549;28;20222;-64
2021/07/02 04:34:56;;;;;;;22.20;15.38;;;16.00;99.90;;;;;;5071558;28;20048;-64
2021/07/02 04:37:22;;;;;;;20.48;14.50;;;16.00;99.90;;;;;;5071513;28;20048;-63
2021/07/02 04:39:48;;;;;;;19.33;14.30;;;16.00;99.90;;;;;;5071137;28;20040;-63
2021/07/02 04:42:13;;;;;;;22.13;13.60;;;16.10;99.90;;;;;;5071411;28;20110;-63
2021/07/02 04:44:39;;;;;;;19.02;13.70;;;16.10;99.90;;;;;;5071461;28;20133;-64
2021/07/02 04:47:06;;;;;;;22.27;14.65;;;16.10;99.90;;;;;;5071193;28;20147;-63
2021/07/02 04:49:32;;;;;;;23.15;14.60;;;16.10;99.90;;;;;;5069912;28;20090;-64
2021/07/02 04:51:58;;;;;;;22.60;14.30;;;16.10;99.90;;;;;;5071147;28;20041;-63
2021/07/02 04:54:24;;;;;;;18.35;12.55;;;16.10;99.90;;;;;;5071185;28;20389;-64
2021/07/02 04:56:50;;;;;;;20.27;14.13;;;16.10;99.90;;;;;;5071090;28;20044;-64
2021/07/02 04:59:17;;;;;;;19.38;14.43;;;16.10;99.90;;;;;;5070981;28;20040;-64
2021/07/02 05:01:44;;;;;;;19.38;14.05;;;16.10;99.90;;;;;;5071008;28;20524;-64
2021/07/02 05:04:10;;;;;;;20.90;14.23;;;16.10;99.90;;;;;;5070937;28;20119;-64
2021/07/02 05:06:37;;;;;;;20.38;13.77;;;16.10;99.90;;;;;;5071148;28;20052;-64
2021/07/02 05:09:05;;;;;;;19.23;13.55;;;16.10;99.90;;;;;;5071243;28;20063;-64
2021/07/02 05:11:32;;;;;;;21.75;14.02;;;16.10;99.90;;;;;;5070951;28;20056;-64
2021/07/02 05:13:59;;;;;;;15.35;13.05;;;16.10;99.90;;;;;;5070857;28;20071;-64
2021/07/02 05:16:24;;;;;;;16.98;12.32;;;16.10;99.90;;;;;;5070949;28;20435;-64
2021/07/02 05:18:50;;;;;;;17.67;12.82;;;16.10;99.90;;;;;;5070699;28;20453;-64
2021/07/02 05:21:15;;;;;;;15.32;11.82;;;16.00;99.90;;;;;;5071069;28;20554;-64
2021/07/02 05:23:41;;;;;;;18.02;12.80;;;16.10;99.90;;;;;;5070810;28;20517;-64
2021/07/02 05:26:08;;;;;;;17.17;12.57;;;16.10;99.90;;;;;;5057588;28;20363;-64
2021/07/02 05:28:35;;;;;;;16.70;13.93;;;16.00;99.90;;;;;;5050695;28;20136;-64
2021/07/02 05:31:01;;;;;;;16.50;13.27;;;16.00;99.90;;;;;;5050713;28;20041;-64
2021/07/02 05:33:27;;;;;;;19.63;13.07;;;16.00;99.90;;;;;;5050824;28;20052;-64
2021/07/02 05:35:53;;;;;;;16.48;12.52;;;16.00;99.90;;;;;;5050782;28;20056;-64
2021/07/02 05:38:19;;;;;;;16.33;11.70;;;16.00;99.90;;;;;;5050434;28;20044;-64
2021/07/02 05:40:45;;;;;;;18.50;12.60;;;16.10;99.90;;;;;;5050471;28;20171;-64
2021/07/02 05:43:11;;;;;;;17.17;12.13;;;16.10;99.90;;;;;;5051024;28;20075;-64
2021/07/02 05:45:36;;;;;;;17.15;13.02;;;16.10;99.90;;;;;;5050460;28;20112;-64
2021/07/02 05:48:02;;;;;;;16.33;12.55;;;16.10;99.90;;;;;;5049042;28;20033;-64
2021/07/02 05:50:29;;;;;;;18.35;12.50;;;16.10;99.90;;;;;;5049614;28;20041;-64
2021/07/02 05:52:55;;;;;;;18.23;12.73;;;16.10;99.90;;;;;;5050472;28;20076;-64
2021/07/02 05:55:25;;;;;;;17.42;12.43;;;16.10;99.90;;;;;;5050239;28;20481;-64
2021/07/02 05:57:51;;;;;;;14.85;12.38;;;16.10;99.90;;;;;;5050112;28;20080;-64
2021/07/02 06:00:18;;;;;;;14.93;11.32;;;16.10;99.90;;;;;;5049989;28;20067;-64
2021/07/02 06:02:44;;;;;;;12.45;10.90;;;16.20;99.90;;;;;;5050048;28;20045;-64
2021/07/02 06:05:10;;;;;;;12.75;10.23;;;16.20;99.90;;;;;;5050024;28;20043;-64
2021/07/02 06:07:51;;;;;;;12.82;10.50;;;16.30;99.90;;;;;;5050018;28;20037;-64
2021/07/02 06:10:19;;;;;;;13.88;11.05;;;16.40;99.90;;;;;;5050040;28;20037;-64
2021/07/02 06:12:45;;;;;;;11.85;9.35;;;16.40;99.90;;;;;;5049971;28;20062;-64
2021/07/02 06:15:13;;;;;;;14.57;11.48;;;16.50;99.90;;;;;;5050112;28;20049;-64
2021/07/02 06:17:39;;;;;;;13.70;10.77;;;16.50;99.90;;;;;;5049967;28;20033;-64
2021/07/02 06:20:06;;;;;;;16.00;12.05;;;16.50;99.90;;;;;;5048565;28;20445;-64
2021/07/02 06:22:32;;;;;;;14.10;12.50;;;16.50;99.90;;;;;;5032005;28;20500;-64
2021/07/02 06:24:57;;;;;;;13.75;12.18;;;16.60;99.90;;;;;;5053318;28;20131;-64
2021/07/02 06:27:23;;;;;;;16.65;12.07;;;16.60;99.90;;;;;;5069828;28;20098;-64
2021/07/02 06:29:49;;;;;;;17.25;12.88;;;16.50;99.90;;;;;;5069841;28;20040;-64
2021/07/02 06:32:15;;;;;;;15.10;12.57;;;16.50;99.90;;;;;;5069796;28;20141;-64
2021/07/02 06:34:41;;;;;;;13.80;10.20;;;16.60;99.90;;;;;;5069749;28;20492;-64
2021/07/02 06:37:06;;;;;;;14.15;11.70;;;16.60;99.90;;;;;;5069865;28;20070;-64
2021/07/02 06:39:33;;;;;;;16.35;12.15;;;16.70;99.90;;;;;;5069775;28;20044;-64
2021/07/02 06:41:59;;;;;;;15.40;11.32;;;16.60;99.90;;;;;;5069735;28;20090;-63
2021/07/02 06:44:25;;;;;;;15.10;11.85;;;16.60;99.90;;;;;;5069758;28;20040;-64
2021/07/02 06:47:10;;;;;;;12.93;10.60;;;16.70;99.90;;;;;;5054872;28;20105;-64
2021/07/02 06:49:38;;;;;;;13.15;11.75;;;16.70;99.90;;;;;;5069719;28;20100;-64
2021/07/02 06:52:07;;;;;;;12.85;10.90;;;16.70;99.90;;;;;;5069707;28;20048;-64
2021/07/02 06:54:52;;;;;;;14.13;11.43;;;16.80;99.90;;;;;;5054602;28;20504;-64
2021/07/02 06:57:18;;;;;;;11.90;10.43;;;16.80;99.90;;;;;;5069667;28;20124;-64
2021/07/02 06:59:44;;;;;;;12.55;9.40;;;16.80;99.90;;;;;;5068358;28;20052;-64
2021/07/02 07:02:12;;;;;;;14.23;11.00;;;16.90;99.90;;;;;;5070570;28;20068;-64
2021/07/02 07:04:38;;;;;;;12.77;10.50;;;16.90;99.90;;;;;;5073180;28;20538;-64
2021/07/02 07:07:05;;;;;;;13.18;10.90;;;16.90;99.90;;;;;;5073162;28;20115;-64
2021/07/02 07:09:31;;;;;;;12.70;10.52;;;16.90;99.90;;;;;;5073204;28;20051;-64
2021/07/02 07:11:58;;;;;;;13.30;10.38;;;17.00;99.90;;;;;;5073183;28;20036;-64
2021/07/02 07:14:24;;;;;;;11.70;10.02;;;17.00;99.90;;;;;;5073133;28;20043;-64
2021/07/02 07:16:50;;;;;;;13.98;10.85;;;17.00;99.90;;;;;;5073110;28;20486;-64
2021/07/02 07:19:17;;;;;;;12.88;9.90;;;17.00;99.90;;;;;;5073025;28;20048;-64
2021/07/02 07:21:43;;;;;;;12.38;9.82;;;17.00;99.90;;;;;;5073081;28;20041;-64
2021/07/02 07:24:10;;;;;;;12.48;10.55;;;17.10;99.90;;;;;;5073150;28;20067;-64
2021/07/02 07:26:36;;;;;;;15.00;11.20;;;17.10;99.90;;;;;;5055383;28;20048;-64
2021/07/02 07:29:07;;;;;;;12.38;10.85;;;17.20;99.90;;;;;;5052802;28;20103;-64
2021/07/02 07:31:33;;;;;;;15.27;11.32;;;17.20;99.90;;;;;;5052818;28;20116;-64
2021/07/02 07:34:01;;;;;;;14.55;11.10;;;17.30;99.90;;;;;;5052936;28;20175;-64
2021/07/02 07:36:31;;;;;;;13.07;11.10;;;17.30;99.90;;;;;;5052763;28;20037;-65
2021/07/02 07:38:57;;;;;;;12.90;10.82;;;17.30;99.90;;;;;;5052947;28;20117;-64
2021/07/02 07:41:24;;;;;;;14.30;11.75;;;17.30;99.90;;;;;;5052786;28;20075;-64
2021/07/02 07:43:51;;;;;;;16.30;11.65;;;17.30;99.90;;;;;;5052796;28;20495;-64
2021/07/02 07:46:17;;;;;;;13.10;10.73;;;17.40;99.90;;;;;;5052518;28;20139;-64
2021/07/02 07:48:43;;;;;;;15.68;11.48;;;17.40;99.90;;;;;;5052608;28;20119;-64
2021/07/02 07:51:31;;;;;;;11.98;10.10;;;17.40;99.90;;;;;;5052607;28;20045;-64
2021/07/02 07:53:57;;;;;;;14.30;10.52;;;17.50;99.90;;;;;;5052823;28;20080;-64
2021/07/02 07:56:23;;;;;;;13.57;10.73;;;17.60;99.90;;;;;;5052344;28;20479;-64
2021/07/02 07:58:51;;;;;;;12.32;10.70;;;17.80;99.90;;;;;;5052298;28;20123;-64
2021/07/02 08:01:17;;;;;;;13.55;10.75;;;17.90;99.90;;;;;;5052158;28;20112;-64
2021/07/02 08:03:42;;;;;;;15.60;10.95;;;17.90;99.90;;;;;;5052302;28;20398;-64
2021/07/02 08:06:08;;;;;;;12.40;10.63;;;18.00;99.90;;;;;;5052142;28;20044;-64
2021/07/02 08:08:34;;;;;;;15.15;11.15;;;18.00;99.90;;;;;;5052375;28;20048;-64
2021/07/02 08:10:59;;;;;;;13.98;10.95;;;18.00;99.90;;;;;;5052128;28;20068;-64
2021/07/02 08:13:28;;;;;;;15.32;10.68;;;17.90;99.90;;;;;;5051289;28;20045;-64
2021/07/02 08:15:56;;;;;;;15.25;10.73;;;17.90;99.90;;;;;;5052111;28;20061;-64
2021/07/02 08:18:22;;;;;;;14.15;10.50;;;18.00;99.90;;;;;;5050816;28;20049;-64
2021/07/02 08:20:48;;;;;;;13.95;11.20;;;17.90;99.90;;;;;;5051886;28;20046;-64
2021/07/02 08:23:13;;;;;;;12.85;9.93;;;17.80;99.90;;;;;;5051808;28;20566;-64
2021/07/02 08:25:39;;;;;;;12.65;9.82;;;17.80;99.90;;;;;;5061044;28;20048;-64
2021/07/02 08:30:52;;;;;;;11.10;8.77;;;17.80;99.90;;;;;;5071641;28;20047;-64
2021/07/02 08:33:18;;;;;;;11.55;8.95;;;17.80;99.90;;;;;;5053679;28;20041;-64
2021/07/02 08:35:46;;;;;;;9.25;8.15;;;17.90;99.90;;;;;;5071597;28;20145;-64
2021/07/02 08:38:14;;;;;;;11.18;8.90;;;18.00;99.90;;;;;;5071498;28;20055;-64
2021/07/02 08:40:40;;;;;;;10.07;8.38;;;18.10;99.90;;;;;;5071397;28;20064;-64
2021/07/02 08:43:07;;;;;;;9.30;7.93;;;18.30;99.90;;;;;;5071392;28;20063;-64
2021/07/02 08:45:33;;;;;;;9.30;7.90;;;18.40;99.90;;;;;;5071311;28;20043;-64
2021/07/02 08:48:06;;;;;;;10.38;8.00;;;18.40;99.90;;;;;;5069964;28;20036;-64
2021/07/02 08:50:33;;;;;;;8.18;7.18;;;18.50;99.90;;;;;;5071248;28;20041;-64
2021/07/02 08:52:59;;;;;;;8.40;6.82;;;18.50;99.90;;;;;;5071152;28;20040;-64
2021/07/02 08:55:25;;;;;;;11.27;8.63;;;18.60;99.90;;;;;;5071513;28;20053;-64
2021/07/02 08:57:51;;;;;;;9.07;8.18;;;18.60;99.90;;;;;;5070960;28;20394;-64
2021/07/02 09:00:18;;;;;;;8.68;7.72;;;18.60;99.90;;;;;;5071138;28;20737;-64
2021/07/02 09:02:44;;;;;;;11.50;8.57;;;18.60;99.90;;;;;;5070974;28;20199;-64
2021/07/02 09:05:33;;;;;;;8.50;7.47;;;18.60;99.90;;;;;;5070999;28;20489;-64
2021/07/02 09:07:59;;;;;;;8.63;7.72;;;18.50;99.90;;;;;;5070666;28;20033;-64
2021/07/02 09:10:35;;;;;;;8.85;7.28;;;18.50;99.90;;;;;;5070944;28;20040;-64
2021/07/02 09:13:02;;;;;;;8.45;7.10;;;18.60;99.90;;;;;;5052849;28;20036;-64
2021/07/02 09:15:29;;;;;;;8.05;7.25;;;18.60;99.90;;;;;;5070801;28;20044;-64
2021/07/02 09:18:00;;;;;;;8.50;6.72;;;18.50;99.90;;;;;;5070553;28;20055;-64
2021/07/02 09:20:36;;;;;;;8.77;7.30;;;18.50;99.90;;;;;;5070843;28;20127;-64
2021/07/02 09:23:06;;;;;;;7.00;6.10;;;18.50;99.90;;;;;;5070686;28;20067;-64
2021/07/02 09:25:38;;;;;;;7.68;6.85;;;18.40;99.90;;;;;;5044129;28;20049;-64
2021/07/02 09:28:12;;;;;;;9.18;6.53;;;18.40;99.90;;;;;;5050410;28;20254;-64
2021/07/02 09:30:49;;;;;;;8.40;6.88;;;18.30;99.90;;;;;;5050646;28;20474;-64
2021/07/02 09:33:17;;;;;;;7.63;6.53;;;18.30;99.90;;;;;;5050437;28;20040;-64
2021/07/02 09:35:51;;;;;;;8.90;6.93;;;18.20;99.90;;;;;;5050598;28;20067;-64
2021/07/02 09:38:19;;;;;;;7.70;6.07;;;18.20;99.90;;;;;;5049264;28;20048;-64
2021/07/02 09:40:47;;;;;;;8.60;6.40;;;18.10;99.90;;;;;;5059631;22;20057;-68
2021/07/02 09:43:18;;;;;;;8.48;7.53;;;18.10;99.90;;;;;;5032716;28;20103;-68
2021/07/02 09:45:49;;;;;;;9.93;7.80;;;18.00;99.90;;;;;;5050843;28;20068;-68
2021/07/02 09:48:17;;;;;;;8.85;7.35;;;18.00;99.90;;;;;;5050482;28;20072;-68
2021/07/02 09:50:44;;;;;;;8.65;7.70;;;18.00;99.90;;;;;;5049382;28;20072;-68
2021/07/02 09:53:10;;;;;;;10.77;8.48;;;18.10;99.90;;;;;;5050822;28;20087;-68
2021/07/02 09:55:51;;;;;;;10.57;8.48;;;18.10;99.90;;;;;;5050367;28;20033;-68
2021/07/02 09:58:26;;;;;;;12.20;8.52;;;18.10;99.90;;;;;;5050400;28;20120;-68
2021/07/02 10:01:00;;;;;;;10.93;9.50;;;18.10;99.90;;;;;;5050359;28;20574;-68
2021/07/02 10:03:29;;;;;;;12.68;10.07;;;18.10;99.90;;;;;;5050217;28;20044;-68
2021/07/02 10:06:05;;;;;;;12.93;9.55;;;18.10;99.90;;;;;;5050272;28;20051;-68
2021/07/02 10:08:33;;;;;;;12.95;10.13;;;18.10;99.90;;;;;;5050095;28;20369;-68
2021/07/02 10:11:01;;;;;;;11.80;9.82;;;18.00;99.90;;;;;;5050406;28;20043;-68
2021/07/02 10:13:32;;;;;;;14.13;10.65;;;18.00;99.90;;;;;;5050235;28;20041;-68
2021/07/02 10:16:00;;;;;;;15.25;12.02;;;18.00;99.90;;;;;;5050289;28;20155;-68
2021/07/02 10:18:30;;;;;;;14.15;10.80;;;18.00;99.90;;;;;;5050121;28;20036;-68
2021/07/02 10:21:02;;;;;;;13.93;11.15;;;18.00;99.90;;;;;;5050090;28;20094;-68
2021/07/02 10:23:35;;;;;;;13.73;10.82;;;18.00;99.90;;;;;;5050150;28;20040;-68
2021/07/02 10:26:03;;;;;;;14.27;10.70;;;18.10;99.90;;;;;;5050017;28;20037;-68
2021/07/02 10:28:30;;;;;;;13.25;10.57;;;18.10;99.90;;;;;;5049996;28;20036;-68
2021/07/02 10:30:57;;;;;;;13.93;11.30;;;18.20;99.90;;;;;;5050222;28;20045;-69
2021/07/02 10:33:26;;;;;;;13.13;10.68;;;18.10;99.90;;;;;;5050029;28;20037;-68
2021/07/02 10:35:58;;;;;;;13.68;10.85;;;18.30;99.90;;;;;;5050119;28;20057;-68
2021/07/02 10:38:34;;;;;;;13.73;10.52;;;18.30;99.90;;;;;;5053067;28;20053;-68
2021/07/02 10:41:14;;;;;;;12.18;8.73;;;18.50;99.90;;;;;;5053710;28;20057;-68
2021/07/02 10:44:10;;;;;;;12.52;10.23;;;18.60;99.90;;;;;;5053802;28;20053;-68
2021/07/02 10:46:39;;;;;;;12.48;9.68;;;18.70;99.90;;;;;;5053855;28;20124;-68
2021/07/02 10:49:09;;;;;;;11.65;9.40;;;18.70;99.90;;;;;;5053832;28;20491;-68
2021/07/02 10:51:35;;;;;;;10.23;9.13;;;18.70;99.90;;;;;;5052470;28;20444;-68
2021/07/02 10:54:16;;;;;;;12.35;9.50;;;18.60;99.90;;;;;;5053554;28;20520;-68
2021/07/02 10:56:59;;;;;;;10.43;8.93;;;18.60;99.90;;;;;;5053888;28;20075;-68
2021/07/02 10:59:36;;;;;;;11.55;9.02;;;18.60;99.90;;;;;;5053432;28;20048;-68
2021/07/02 11:02:15;;;;;;;11.77;9.32;;;18.70;99.90;;;;;;5052412;28;20044;-68
2021/07/02 11:04:51;;;;;;;10.68;8.55;;;18.70;99.90;;;;;;5053360;28;20450;-68
2021/07/02 11:07:22;;;;;;;12.52;9.32;;;18.80;99.90;;;;;;5053598;28;20486;-68
2021/07/02 11:09:51;;;;;;;10.23;7.72;;;18.80;99.90;;;;;;5053337;28;20041;-68
2021/07/02 11:12:20;;;;;;;8.25;7.45;;;18.70;99.90;;;;;;5053323;28;20037;-68
2021/07/02 11:14:51;;;;;;;8.32;7.30;;;18.70;99.90;;;;;;5053148;28;20059;-68
2021/07/02 11:17:37;;;;;;;9.32;8.25;;;18.70;99.90;;;;;;5053267;28;20064;-68
2021/07/02 11:20:13;;;;;;;9.98;7.93;;;18.80;99.90;;;;;;5053097;28;20052;-68
2021/07/02 11:22:46;;;;;;;9.75;7.78;;;18.90;99.90;;;;;;5053642;28;20037;-68
2021/07/02 11:25:33;;;;;;;9.80;8.27;;;19.00;99.90;;;;;;5052844;28;20132;-68
2021/07/02 11:28:07;;;;;;;11.15;7.90;;;19.20;99.90;;;;;;5053138;28;20048;-68
2021/07/02 11:30:40;;;;;;;7.93;7.07;;;19.40;99.90;;;;;;5053060;28;20044;-68
2021/07/02 11:33:09;;;;;;;8.38;7.47;;;19.50;99.90;;;;;;5053213;28;20044;-68
2021/07/02 11:35:40;;;;;;;10.40;8.13;;;19.60;99.90;;;;;;5052852;28;20123;-68
2021/07/02 11:38:16;;;;;;;9.27;8.07;;;19.70;99.90;;;;;;5053195;28;20405;-68
2021/07/02 11:40:51;;;;;;;9.23;8.00;;;19.90;99.90;;;;;;5052725;28;20041;-68
2021/07/02 11:43:20;;;;;;;10.70;8.25;;;19.80;99.90;;;;;;5052874;28;20049;-68
2021/07/02 11:45:52;;;;;;;12.30;8.32;;;19.90;99.90;;;;;;5051337;28;20045;-68
2021/07/02 11:48:23;;;;;;;10.13;8.23;;;19.90;99.90;;;;;;5051778;28;20045;-69
2021/07/02 11:50:50;;;;;;;10.70;7.70;;;19.90;99.90;;;;;;5052371;28;20052;-68
2021/07/02 11:53:41;;;;;;;11.10;8.35;;;20.00;99.90;;;;;;5052601;28;20537;-69
2021/07/02 11:56:08;;;;;;;8.80;7.57;;;20.30;99.90;;;;;;5052722;28;20045;-69
2021/07/02 11:58:41;;;;;;;8.18;7.38;;;20.50;99.70;;;;;;5052528;28;20518;-69
2021/07/02 12:01:22;;;;;;;9.10;6.60;;;20.70;99.90;;;;;;5051230;28;20115;-68
2021/07/02 12:03:50;;;;;;;6.50;5.90;;;20.90;99.90;;;;;;5052535;28;20101;-70
2021/07/02 12:06:24;;;;;;;8.18;6.43;;;21.00;99.10;;;;;;5052204;28;20501;-69
2021/07/02 12:08:57;;;;;;;8.73;6.30;;;21.10;98.70;;;;;;5052156;28;20083;-69
2021/07/02 12:11:37;;;;;;;7.72;6.57;;;21.20;99.90;;;;;;5052297;28;20040;-69
2021/07/02 12:14:08;;;;;;;8.98;6.65;;;21.30;99.90;;;;;;5052305;28;20037;-70
2021/07/02 12:16:38;;;;;;;7.07;6.15;;;21.60;99.40;;;;;;5052404;28;20550;-69
2021/07/02 12:19:08;;;;;;;8.23;6.53;;;21.70;98.60;;;;;;5052119;28;20542;-69
2021/07/02 12:21:36;;;;;;;6.63;5.83;;;21.80;97.50;;;;;;5051971;28;20040;-69
2021/07/02 12:24:07;;;;;;;7.22;5.97;;;21.80;98.50;;;;;;5052019;28;20043;-69
2021/07/02 12:26:35;;;;;;;5.82;5.22;;;21.80;98.60;;;;;;5035081;28;20116;-69
2021/07/02 12:29:08;;;;;;;6.93;6.22;;;21.90;98.70;;;;;;5031980;28;20338;-69
2021/07/02 12:31:51;;;;;;;7.00;5.97;;;22.00;98.90;;;;;;5031875;28;20091;-69
2021/07/02 12:34:27;;;;;;;7.22;6.47;;;22.00;97.80;;;;;;5032401;28;20045;-69
2021/07/02 12:37:14;;;;;;;8.35;6.32;;;22.10;96.40;;;;;;5032095;28;20037;-69
2021/07/02 12:39:42;;;;;;;6.10;5.53;;;22.00;96.70;;;;;;5031569;28;20514;-68
2021/07/02 12:42:18;;;;;;;7.22;6.38;;;22.00;97.00;;;;;;5032205;28;20172;-69